sensor_id;sensor_type;location;lat;lon;timestamp;P1;durP1;ratioP1;P2;durP2;ratioP2
23185;SDS011;11761;51.324;4.590;2022-08-19T00:01:24;15.52;;;11.85;;
23185;SDS011;11761;51.324;4.590;2022-08-19T00:03:52;15.07;;;11.20;;
23185;SDS011;11761;51.324;4.590;2022-08-19T00:06:18;17.52;;;11.90;;
23185;SDS011;11761;51.324;4.590;2022-08-19T00:08:44;18.27;;;11.65;;
23185;SDS011;11761;51.324;4.590;2022-08-19T00:11:11;16.00;;;11.63;;
23185;SDS011;11761;51.324;4.590;2022-08-19T00:13:38;18.85;;;12.85;;
23185;SDS011;11761;51.324;4.590;2022-08-19T00:16:04;18.17;;;13.35;;
23185;SDS011;11761;51.324;4.590;2022-08-19T00:18:32;16.05;;;12.30;;
23185;SDS011;11761;51.324;4.590;2022-08-19T00:20:59;15.77;;;11.95;;
23185;SDS011;11761;51.324;4.590;2022-08-19T00:23:26;15.98;;;12.48;;
23185;SDS011;11761;51.324;4.590;2022-08-19T00:25:52;18.45;;;12.65;;
23185;SDS011;11761;51.324;4.590;2022-08-19T00:28:19;15.65;;;11.88;;
23185;SDS011;11761;51.324;4.590;2022-08-19T00:30:46;16.95;;;12.93;;
23185;SDS011;11761;51.324;4.590;2022-08-19T00:33:12;18.40;;;14.15;;
23185;SDS011;11761;51.324;4.590;2022-08-19T00:35:39;20.75;;;14.93;;
23185;SDS011;11761;51.324;4.590;2022-08-19T00:38:06;21.90;;;14.52;;
23185;SDS011;11761;51.324;4.590;2022-08-19T00:40:32;22.55;;;16.17;;
23185;SDS011;11761;51.324;4.590;2022-08-19T00:42:58;26.73;;;17.30;;
23185;SDS011;11761;51.324;4.590;2022-08-19T00:45:26;28.52;;;17.63;;
23185;SDS011;11761;51.324;4.590;2022-08-19T00:47:55;27.05;;;17.77;;
23185;SDS011;11761;51.324;4.590;2022-08-19T00:50:22;28.80;;;17.13;;
23185;SDS011;11761;51.324;4.590;2022-08-19T00:52:48;31.70;;;17.92;;
23185;SDS011;11761;51.324;4.590;2022-08-19T00:55:19;31.33;;;18.90;;
23185;SDS011;11761;51.324;4.590;2022-08-19T00:57:58;31.40;;;19.23;;
23185;SDS011;11761;51.324;4.590;2022-08-19T01:00:30;31.70;;;15.98;;
23185;SDS011;11761;51.324;4.590;2022-08-19T01:02:57;29.67;;;17.52;;
23185;SDS011;11761;51.324;4.590;2022-08-19T01:05:24;43.55;;;22.05;;
23185;SDS011;11761;51.324;4.590;2022-08-19T01:07:53;44.42;;;24.23;;
23185;SDS011;11761;51.324;4.590;2022-08-19T01:10:26;46.38;;;23.95;;
23185;SDS011;11761;51.324;4.590;2022-08-19T01:12:55;53.50;;;26.55;;
23185;SDS011;11761;51.324;4.590;2022-08-19T01:15:38;44.42;;;24.73;;
23185;SDS011;11761;51.324;4.590;2022-08-19T01:18:13;44.97;;;24.02;;
23185;SDS011;11761;51.324;4.590;2022-08-19T01:20:42;41.40;;;23.25;;
23185;SDS011;11761;51.324;4.590;2022-08-19T01:23:08;39.53;;;22.73;;
23185;SDS011;11761;51.324;4.590;2022-08-19T01:25:38;42.72;;;24.55;;
23185;SDS011;11761;51.324;4.590;2022-08-19T01:28:13;50.30;;;27.05;;
23185;SDS011;11761;51.324;4.590;2022-08-19T01:30:41;51.67;;;26.85;;
23185;SDS011;11761;51.324;4.590;2022-08-19T01:33:08;55.45;;;27.52;;
23185;SDS011;11761;51.324;4.590;2022-08-19T01:35:35;60.80;;;28.55;;
23185;SDS011;11761;51.324;4.590;2022-08-19T01:38:06;63.10;;;29.63;;
23185;SDS011;11761;51.324;4.590;2022-08-19T01:40:36;63.10;;;30.58;;
23185;SDS011;11761;51.324;4.590;2022-08-19T01:43:04;58.97;;;28.55;;
23185;SDS011;11761;51.324;4.590;2022-08-19T01:45:32;65.05;;;28.23;;
23185;SDS011;11761;51.324;4.590;2022-08-19T01:47:59;53.90;;;28.05;;
23185;SDS011;11761;51.324;4.590;2022-08-19T01:50:26;57.10;;;27.83;;
23185;SDS011;11761;51.324;4.590;2022-08-19T01:52:53;57.08;;;28.88;;
23185;SDS011;11761;51.324;4.590;2022-08-19T01:55:20;53.42;;;27.65;;
23185;SDS011;11761;51.324;4.590;2022-08-19T01:57:50;61.58;;;29.70;;
23185;SDS011;11761;51.324;4.590;2022-08-19T02:00:22;71.20;;;31.45;;
23185;SDS011;11761;51.324;4.590;2022-08-19T02:02:49;65.72;;;30.63;;
23185;SDS011;11761;51.324;4.590;2022-08-19T02:05:15;68.28;;;30.17;;
23185;SDS011;11761;51.324;4.590;2022-08-19T02:07:43;76.85;;;34.25;;
23185;SDS011;11761;51.324;4.590;2022-08-19T02:10:12;69.10;;;32.63;;
23185;SDS011;11761;51.324;4.590;2022-08-19T02:12:41;70.82;;;33.05;;
23185;SDS011;11761;51.324;4.590;2022-08-19T02:15:07;74.03;;;32.75;;
23185;SDS011;11761;51.324;4.590;2022-08-19T02:17:33;79.95;;;35.60;;
23185;SDS011;11761;51.324;4.590;2022-08-19T02:20:00;72.68;;;34.95;;
23185;SDS011;11761;51.324;4.590;2022-08-19T02:22:26;78.80;;;34.35;;
23185;SDS011;11761;51.324;4.590;2022-08-19T02:24:53;70.50;;;33.05;;
23185;SDS011;11761;51.324;4.590;2022-08-19T02:27:21;66.57;;;32.20;;
23185;SDS011;11761;51.324;4.590;2022-08-19T02:29:48;70.15;;;30.80;;
23185;SDS011;11761;51.324;4.590;2022-08-19T02:32:15;69.60;;;32.95;;
23185;SDS011;11761;51.324;4.590;2022-08-19T02:34:42;76.10;;;33.97;;
23185;SDS011;11761;51.324;4.590;2022-08-19T02:37:08;79.80;;;35.65;;
23185;SDS011;11761;51.324;4.590;2022-08-19T02:39:54;82.88;;;36.22;;
23185;SDS011;11761;51.324;4.590;2022-08-19T02:42:20;80.22;;;35.53;;
23185;SDS011;11761;51.324;4.590;2022-08-19T02:44:48;78.35;;;35.20;;
23185;SDS011;11761;51.324;4.590;2022-08-19T02:47:14;84.22;;;36.13;;
23185;SDS011;11761;51.324;4.590;2022-08-19T02:49:40;86.28;;;37.83;;
23185;SDS011;11761;51.324;4.590;2022-08-19T02:52:07;89.65;;;38.83;;
23185;SDS011;11761;51.324;4.590;2022-08-19T02:54:33;89.80;;;39.88;;
23185;SDS011;11761;51.324;4.590;2022-08-19T02:56:59;96.03;;;39.85;;
23185;SDS011;11761;51.324;4.590;2022-08-19T02:59:25;85.43;;;37.65;;
23185;SDS011;11761;51.324;4.590;2022-08-19T03:01:55;98.85;;;40.45;;
23185;SDS011;11761;51.324;4.590;2022-08-19T03:04:22;93.38;;;39.10;;
23185;SDS011;11761;51.324;4.590;2022-08-19T03:06:48;91.47;;;39.95;;
23185;SDS011;11761;51.324;4.590;2022-08-19T03:09:15;91.93;;;39.75;;
23185;SDS011;11761;51.324;4.590;2022-08-19T03:11:42;86.88;;;38.88;;
23185;SDS011;11761;51.324;4.590;2022-08-19T03:14:09;88.45;;;39.35;;
23185;SDS011;11761;51.324;4.590;2022-08-19T03:16:44;79.78;;;36.50;;
23185;SDS011;11761;51.324;4.590;2022-08-19T03:19:12;81.88;;;37.75;;
23185;SDS011;11761;51.324;4.590;2022-08-19T03:21:39;82.03;;;38.72;;
23185;SDS011;11761;51.324;4.590;2022-08-19T03:24:07;87.65;;;38.42;;
23185;SDS011;11761;51.324;4.590;2022-08-19T03:26:34;79.43;;;36.17;;
23185;SDS011;11761;51.324;4.590;2022-08-19T03:29:04;78.05;;;36.28;;
23185;SDS011;11761;51.324;4.590;2022-08-19T03:31:31;72.60;;;35.05;;
23185;SDS011;11761;51.324;4.590;2022-08-19T03:33:57;71.82;;;34.20;;
23185;SDS011;11761;51.324;4.590;2022-08-19T03:36:24;66.90;;;33.72;;
23185;SDS011;11761;51.324;4.590;2022-08-19T03:38:53;68.45;;;34.03;;
23185;SDS011;11761;51.324;4.590;2022-08-19T03:41:25;78.15;;;34.75;;
23185;SDS011;11761;51.324;4.590;2022-08-19T03:43:53;76.57;;;35.63;;
23185;SDS011;11761;51.324;4.590;2022-08-19T03:46:22;76.22;;;34.15;;
23185;SDS011;11761;51.324;4.590;2022-08-19T03:48:53;80.53;;;35.40;;
23185;SDS011;11761;51.324;4.590;2022-08-19T03:53:48;71.88;;;35.10;;
23185;SDS011;11761;51.324;4.590;2022-08-19T03:56:15;77.43;;;34.92;;
23185;SDS011;11761;51.324;4.590;2022-08-19T03:58:41;74.07;;;35.53;;
23185;SDS011;11761;51.324;4.590;2022-08-19T04:01:11;76.72;;;35.60;;
23185;SDS011;11761;51.324;4.590;2022-08-19T04:03:43;77.68;;;35.35;;
23185;SDS011;11761;51.324;4.590;2022-08-19T04:08:42;80.63;;;35.10;;
23185;SDS011;11761;51.324;4.590;2022-08-19T04:11:11;76.88;;;33.20;;
23185;SDS011;11761;51.324;4.590;2022-08-19T04:13:40;78.78;;;35.05;;
23185;SDS011;11761;51.324;4.590;2022-08-19T04:16:07;79.72;;;34.88;;
23185;SDS011;11761;51.324;4.590;2022-08-19T04:18:35;87.38;;;36.83;;
23185;SDS011;11761;51.324;4.590;2022-08-19T04:21:03;84.18;;;35.60;;
23185;SDS011;11761;51.324;4.590;2022-08-19T04:23:30;85.32;;;35.85;;
23185;SDS011;11761;51.324;4.590;2022-08-19T04:25:57;85.05;;;36.08;;
23185;SDS011;11761;51.324;4.590;2022-08-19T04:28:23;81.35;;;36.13;;
23185;SDS011;11761;51.324;4.590;2022-08-19T04:30:50;88.35;;;35.17;;
23185;SDS011;11761;51.324;4.590;2022-08-19T04:33:20;83.28;;;34.97;;
23185;SDS011;11761;51.324;4.590;2022-08-19T04:35:49;76.82;;;34.20;;
23185;SDS011;11761;51.324;4.590;2022-08-19T04:38:18;79.43;;;34.60;;
23185;SDS011;11761;51.324;4.590;2022-08-19T04:40:50;79.05;;;33.17;;
23185;SDS011;11761;51.324;4.590;2022-08-19T04:43:37;74.95;;;32.80;;
23185;SDS011;11761;51.324;4.590;2022-08-19T04:46:08;69.60;;;33.78;;
23185;SDS011;11761;51.324;4.590;2022-08-19T04:48:36;78.38;;;33.55;;
23185;SDS011;11761;51.324;4.590;2022-08-19T04:51:05;75.68;;;33.70;;
23185;SDS011;11761;51.324;4.590;2022-08-19T04:53:34;78.78;;;33.35;;
23185;SDS011;11761;51.324;4.590;2022-08-19T04:56:10;76.25;;;33.03;;
23185;SDS011;11761;51.324;4.590;2022-08-19T04:58:42;72.63;;;30.77;;
23185;SDS011;11761;51.324;4.590;2022-08-19T05:01:13;70.03;;;31.80;;
23185;SDS011;11761;51.324;4.590;2022-08-19T05:03:42;72.32;;;31.63;;
23185;SDS011;11761;51.324;4.590;2022-08-19T05:06:12;74.65;;;32.17;;
23185;SDS011;11761;51.324;4.590;2022-08-19T05:08:41;66.87;;;30.27;;
23185;SDS011;11761;51.324;4.590;2022-08-19T05:11:16;75.22;;;31.48;;
23185;SDS011;11761;51.324;4.590;2022-08-19T05:13:51;62.67;;;30.38;;
23185;SDS011;11761;51.324;4.590;2022-08-19T05:16:18;67.43;;;30.90;;
23185;SDS011;11761;51.324;4.590;2022-08-19T05:18:46;69.93;;;30.83;;
23185;SDS011;11761;51.324;4.590;2022-08-19T05:21:31;69.43;;;31.10;;
23185;SDS011;11761;51.324;4.590;2022-08-19T05:24:17;63.20;;;29.60;;
23185;SDS011;11761;51.324;4.590;2022-08-19T05:26:45;64.78;;;29.92;;
23185;SDS011;11761;51.324;4.590;2022-08-19T05:29:14;61.75;;;28.70;;
23185;SDS011;11761;51.324;4.590;2022-08-19T05:31:41;56.10;;;27.67;;
23185;SDS011;11761;51.324;4.590;2022-08-19T05:34:08;59.10;;;28.27;;
23185;SDS011;11761;51.324;4.590;2022-08-19T05:36:36;57.33;;;27.60;;
23185;SDS011;11761;51.324;4.590;2022-08-19T05:39:08;58.55;;;27.40;;
23185;SDS011;11761;51.324;4.590;2022-08-19T05:41:52;51.50;;;26.58;;
23185;SDS011;11761;51.324;4.590;2022-08-19T05:44:28;42.85;;;24.20;;
23185;SDS011;11761;51.324;4.590;2022-08-19T05:46:59;34.88;;;21.25;;
23185;SDS011;11761;51.324;4.590;2022-08-19T05:49:28;31.42;;;18.80;;
23185;SDS011;11761;51.324;4.590;2022-08-19T05:51:54;29.40;;;17.48;;
23185;SDS011;11761;51.324;4.590;2022-08-19T05:54:22;26.70;;;16.50;;
23185;SDS011;11761;51.324;4.590;2022-08-19T05:56:50;28.33;;;16.95;;
23185;SDS011;11761;51.324;4.590;2022-08-19T05:59:18;24.63;;;16.13;;
23185;SDS011;11761;51.324;4.590;2022-08-19T06:01:47;25.75;;;15.85;;
23185;SDS011;11761;51.324;4.590;2022-08-19T06:04:16;25.15;;;15.52;;
23185;SDS011;11761;51.324;4.590;2022-08-19T06:06:48;27.20;;;15.55;;
23185;SDS011;11761;51.324;4.590;2022-08-19T06:09:17;26.73;;;16.02;;
23185;SDS011;11761;51.324;4.590;2022-08-19T06:11:45;26.75;;;15.23;;
23185;SDS011;11761;51.324;4.590;2022-08-19T06:14:15;22.90;;;14.68;;
23185;SDS011;11761;51.324;4.590;2022-08-19T06:16:45;25.58;;;15.15;;
23185;SDS011;11761;51.324;4.590;2022-08-19T06:19:12;25.58;;;14.77;;
23185;SDS011;11761;51.324;4.590;2022-08-19T06:21:43;23.95;;;14.00;;
23185;SDS011;11761;51.324;4.590;2022-08-19T06:24:11;25.00;;;13.65;;
23185;SDS011;11761;51.324;4.590;2022-08-19T06:26:42;19.58;;;13.27;;
23185;SDS011;11761;51.324;4.590;2022-08-19T06:29:10;25.25;;;12.93;;
23185;SDS011;11761;51.324;4.590;2022-08-19T06:31:43;24.95;;;13.95;;
23185;SDS011;11761;51.324;4.590;2022-08-19T06:34:11;25.05;;;13.75;;
23185;SDS011;11761;51.324;4.590;2022-08-19T06:36:39;23.25;;;12.98;;
23185;SDS011;11761;51.324;4.590;2022-08-19T06:39:14;25.83;;;14.15;;
23185;SDS011;11761;51.324;4.590;2022-08-19T06:41:48;25.17;;;14.25;;
23185;SDS011;11761;51.324;4.590;2022-08-19T06:44:16;30.42;;;15.52;;
23185;SDS011;11761;51.324;4.590;2022-08-19T06:46:45;26.83;;;14.35;;
23185;SDS011;11761;51.324;4.590;2022-08-19T06:49:11;28.50;;;15.60;;
23185;SDS011;11761;51.324;4.590;2022-08-19T06:51:40;29.15;;;16.02;;
23185;SDS011;11761;51.324;4.590;2022-08-19T06:54:08;33.80;;;16.85;;
23185;SDS011;11761;51.324;4.590;2022-08-19T06:56:36;34.70;;;17.80;;
23185;SDS011;11761;51.324;4.590;2022-08-19T06:59:07;29.33;;;16.67;;
23185;SDS011;11761;51.324;4.590;2022-08-19T07:01:39;34.03;;;18.77;;
23185;SDS011;11761;51.324;4.590;2022-08-19T07:04:13;32.95;;;17.98;;
23185;SDS011;11761;51.324;4.590;2022-08-19T07:07:01;41.15;;;20.98;;
23185;SDS011;11761;51.324;4.590;2022-08-19T07:09:31;41.33;;;20.67;;
23185;SDS011;11761;51.324;4.590;2022-08-19T07:11:58;42.92;;;20.88;;
23185;SDS011;11761;51.324;4.590;2022-08-19T07:14:25;42.08;;;22.85;;
23185;SDS011;11761;51.324;4.590;2022-08-19T07:16:53;40.30;;;21.63;;
23185;SDS011;11761;51.324;4.590;2022-08-19T07:19:21;42.25;;;20.23;;
23185;SDS011;11761;51.324;4.590;2022-08-19T07:21:51;44.15;;;21.63;;
23185;SDS011;11761;51.324;4.590;2022-08-19T07:24:19;44.63;;;21.58;;
23185;SDS011;11761;51.324;4.590;2022-08-19T07:26:46;42.58;;;21.77;;
23185;SDS011;11761;51.324;4.590;2022-08-19T07:29:12;41.53;;;21.67;;
23185;SDS011;11761;51.324;4.590;2022-08-19T07:31:39;44.17;;;21.80;;
23185;SDS011;11761;51.324;4.590;2022-08-19T07:34:06;41.42;;;22.45;;
23185;SDS011;11761;51.324;4.590;2022-08-19T07:36:36;45.28;;;22.10;;
23185;SDS011;11761;51.324;4.590;2022-08-19T07:39:05;45.45;;;22.63;;
23185;SDS011;11761;51.324;4.590;2022-08-19T07:41:45;38.28;;;21.20;;
23185;SDS011;11761;51.324;4.590;2022-08-19T07:44:12;39.25;;;20.80;;
23185;SDS011;11761;51.324;4.590;2022-08-19T07:46:42;38.33;;;21.02;;
23185;SDS011;11761;51.324;4.590;2022-08-19T07:49:11;42.45;;;21.80;;
23185;SDS011;11761;51.324;4.590;2022-08-19T07:51:43;42.67;;;23.08;;
23185;SDS011;11761;51.324;4.590;2022-08-19T07:54:10;45.55;;;26.45;;
23185;SDS011;11761;51.324;4.590;2022-08-19T07:56:37;46.45;;;27.35;;
23185;SDS011;11761;51.324;4.590;2022-08-19T07:59:03;46.13;;;27.33;;
23185;SDS011;11761;51.324;4.590;2022-08-19T08:01:30;54.72;;;28.02;;
23185;SDS011;11761;51.324;4.590;2022-08-19T08:03:57;53.38;;;30.67;;
23185;SDS011;11761;51.324;4.590;2022-08-19T08:06:42;50.35;;;29.55;;
23185;SDS011;11761;51.324;4.590;2022-08-19T08:09:32;54.53;;;29.10;;
23185;SDS011;11761;51.324;4.590;2022-08-19T08:12:01;54.88;;;29.23;;
23185;SDS011;11761;51.324;4.590;2022-08-19T08:14:33;52.90;;;29.13;;
23185;SDS011;11761;51.324;4.590;2022-08-19T08:17:02;48.97;;;27.83;;
23185;SDS011;11761;51.324;4.590;2022-08-19T08:19:30;51.00;;;28.63;;
23185;SDS011;11761;51.324;4.590;2022-08-19T08:21:57;47.42;;;27.15;;
23185;SDS011;11761;51.324;4.590;2022-08-19T08:24:25;45.85;;;27.75;;
23185;SDS011;11761;51.324;4.590;2022-08-19T08:26:53;47.60;;;27.63;;
23185;SDS011;11761;51.324;4.590;2022-08-19T08:29:19;52.40;;;27.25;;
23185;SDS011;11761;51.324;4.590;2022-08-19T08:31:46;50.05;;;28.02;;
23185;SDS011;11761;51.324;4.590;2022-08-19T08:34:13;45.80;;;28.52;;
23185;SDS011;11761;51.324;4.590;2022-08-19T08:36:41;47.22;;;26.80;;
23185;SDS011;11761;51.324;4.590;2022-08-19T08:39:14;47.03;;;26.77;;
23185;SDS011;11761;51.324;4.590;2022-08-19T08:44:32;48.17;;;26.55;;
23185;SDS011;11761;51.324;4.590;2022-08-19T08:47:23;39.75;;;24.48;;
23185;SDS011;11761;51.324;4.590;2022-08-19T08:50:04;49.45;;;28.65;;
23185;SDS011;11761;51.324;4.590;2022-08-19T08:52:52;58.40;;;31.08;;
23185;SDS011;11761;51.324;4.590;2022-08-19T08:55:23;60.60;;;31.67;;
23185;SDS011;11761;51.324;4.590;2022-08-19T08:58:05;64.60;;;33.42;;
23185;SDS011;11761;51.324;4.590;2022-08-19T09:00:41;55.05;;;31.90;;
23185;SDS011;11761;51.324;4.590;2022-08-19T09:08:45;53.97;;;30.25;;
23185;SDS011;11761;51.324;4.590;2022-08-19T09:11:15;54.47;;;31.05;;
23185;SDS011;11761;51.324;4.590;2022-08-19T09:14:43;53.75;;;31.17;;
23185;SDS011;11761;51.324;4.590;2022-08-19T09:16:57;60.25;;;32.55;;
23185;SDS011;11761;51.324;4.590;2022-08-19T09:19:24;54.90;;;32.50;;
23185;SDS011;11761;51.324;4.590;2022-08-19T09:21:56;53.30;;;31.63;;
23185;SDS011;11761;51.324;4.590;2022-08-19T09:24:22;49.05;;;30.00;;
23185;SDS011;11761;51.324;4.590;2022-08-19T09:26:48;57.50;;;32.15;;
23185;SDS011;11761;51.324;4.590;2022-08-19T09:29:15;54.17;;;32.10;;
23185;SDS011;11761;51.324;4.590;2022-08-19T09:31:41;48.17;;;29.98;;
23185;SDS011;11761;51.324;4.590;2022-08-19T09:34:07;43.97;;;26.88;;
23185;SDS011;11761;51.324;4.590;2022-08-19T09:36:33;45.97;;;26.52;;
23185;SDS011;11761;51.324;4.590;2022-08-19T09:39:04;45.53;;;25.08;;
23185;SDS011;11761;51.324;4.590;2022-08-19T09:41:31;47.78;;;26.92;;
23185;SDS011;11761;51.324;4.590;2022-08-19T09:43:58;42.92;;;24.38;;
23185;SDS011;11761;51.324;4.590;2022-08-19T09:46:25;40.53;;;23.73;;
23185;SDS011;11761;51.324;4.590;2022-08-19T09:48:53;39.85;;;22.27;;
23185;SDS011;11761;51.324;4.590;2022-08-19T09:51:21;42.75;;;24.33;;
23185;SDS011;11761;51.324;4.590;2022-08-19T09:53:50;39.65;;;23.63;;
23185;SDS011;11761;51.324;4.590;2022-08-19T09:56:17;51.58;;;26.25;;
23185;SDS011;11761;51.324;4.590;2022-08-19T09:58:44;51.55;;;26.60;;
23185;SDS011;11761;51.324;4.590;2022-08-19T10:01:16;49.80;;;25.83;;
23185;SDS011;11761;51.324;4.590;2022-08-19T10:03:48;50.15;;;25.80;;
23185;SDS011;11761;51.324;4.590;2022-08-19T10:06:17;44.97;;;25.23;;
23185;SDS011;11761;51.324;4.590;2022-08-19T10:08:44;47.05;;;26.42;;
23185;SDS011;11761;51.324;4.590;2022-08-19T10:11:11;41.28;;;25.25;;
23185;SDS011;11761;51.324;4.590;2022-08-19T10:13:39;45.35;;;24.83;;
23185;SDS011;11761;51.324;4.590;2022-08-19T10:16:07;43.22;;;22.35;;
23185;SDS011;11761;51.324;4.590;2022-08-19T10:18:36;40.70;;;21.75;;
23185;SDS011;11761;51.324;4.590;2022-08-19T10:21:11;39.33;;;22.70;;
23185;SDS011;11761;51.324;4.590;2022-08-19T10:23:40;34.92;;;21.08;;
23185;SDS011;11761;51.324;4.590;2022-08-19T10:26:11;39.05;;;22.33;;
23185;SDS011;11761;51.324;4.590;2022-08-19T10:28:43;35.63;;;19.67;;
23185;SDS011;11761;51.324;4.590;2022-08-19T10:31:11;35.05;;;21.00;;
23185;SDS011;11761;51.324;4.590;2022-08-19T10:33:40;39.78;;;23.90;;
23185;SDS011;11761;51.324;4.590;2022-08-19T10:36:08;43.45;;;26.15;;
23185;SDS011;11761;51.324;4.590;2022-08-19T10:38:43;46.88;;;27.98;;
23185;SDS011;11761;51.324;4.590;2022-08-19T10:41:11;50.33;;;29.02;;
23185;SDS011;11761;51.324;4.590;2022-08-19T10:43:40;46.03;;;27.45;;
23185;SDS011;11761;51.324;4.590;2022-08-19T10:46:08;45.25;;;27.38;;
23185;SDS011;11761;51.324;4.590;2022-08-19T10:48:35;47.45;;;27.80;;
23185;SDS011;11761;51.324;4.590;2022-08-19T10:51:03;45.65;;;26.83;;
23185;SDS011;11761;51.324;4.590;2022-08-19T10:53:48;45.53;;;26.05;;
23185;SDS011;11761;51.324;4.590;2022-08-19T10:56:16;48.83;;;26.10;;
23185;SDS011;11761;51.324;4.590;2022-08-19T10:59:01;45.42;;;25.33;;
23185;SDS011;11761;51.324;4.590;2022-08-19T11:01:29;42.20;;;24.42;;
23185;SDS011;11761;51.324;4.590;2022-08-19T11:03:56;39.35;;;22.85;;
23185;SDS011;11761;51.324;4.590;2022-08-19T11:06:23;38.08;;;21.88;;
23185;SDS011;11761;51.324;4.590;2022-08-19T11:08:53;32.47;;;22.00;;
23185;SDS011;11761;51.324;4.590;2022-08-19T11:11:20;34.22;;;21.63;;
23185;SDS011;11761;51.324;4.590;2022-08-19T11:13:47;36.45;;;22.70;;
23185;SDS011;11761;51.324;4.590;2022-08-19T11:16:16;34.08;;;21.00;;
23185;SDS011;11761;51.324;4.590;2022-08-19T11:18:46;35.88;;;21.50;;
23185;SDS011;11761;51.324;4.590;2022-08-19T11:21:18;33.55;;;20.67;;
23185;SDS011;11761;51.324;4.590;2022-08-19T11:23:54;29.73;;;20.10;;
23185;SDS011;11761;51.324;4.590;2022-08-19T11:26:22;33.65;;;20.15;;
23185;SDS011;11761;51.324;4.590;2022-08-19T11:28:49;32.17;;;20.15;;
23185;SDS011;11761;51.324;4.590;2022-08-19T11:31:20;32.80;;;18.98;;
23185;SDS011;11761;51.324;4.590;2022-08-19T11:33:47;28.48;;;17.75;;
23185;SDS011;11761;51.324;4.590;2022-08-19T11:36:17;29.05;;;18.10;;
23185;SDS011;11761;51.324;4.590;2022-08-19T11:38:44;31.05;;;19.20;;
23185;SDS011;11761;51.324;4.590;2022-08-19T11:41:14;38.80;;;24.17;;
23185;SDS011;11761;51.324;4.590;2022-08-19T11:43:42;51.65;;;30.92;;
23185;SDS011;11761;51.324;4.590;2022-08-19T11:46:14;47.92;;;28.40;;
23185;SDS011;11761;51.324;4.590;2022-08-19T11:48:42;43.28;;;25.67;;
23185;SDS011;11761;51.324;4.590;2022-08-19T11:51:10;41.17;;;24.02;;
23185;SDS011;11761;51.324;4.590;2022-08-19T11:53:38;38.63;;;22.25;;
23185;SDS011;11761;51.324;4.590;2022-08-19T11:56:05;43.38;;;22.08;;
23185;SDS011;11761;51.324;4.590;2022-08-19T11:58:32;36.50;;;21.27;;
23185;SDS011;11761;51.324;4.590;2022-08-19T12:00:59;33.38;;;20.65;;
23185;SDS011;11761;51.324;4.590;2022-08-19T12:03:26;34.92;;;21.17;;
23185;SDS011;11761;51.324;4.590;2022-08-19T12:05:53;31.58;;;20.58;;
23185;SDS011;11761;51.324;4.590;2022-08-19T12:08:20;37.22;;;21.83;;
23185;SDS011;11761;51.324;4.590;2022-08-19T12:10:46;31.42;;;21.42;;
23185;SDS011;11761;51.324;4.590;2022-08-19T12:13:12;28.33;;;20.50;;
23185;SDS011;11761;51.324;4.590;2022-08-19T12:15:45;31.98;;;20.23;;
23185;SDS011;11761;51.324;4.590;2022-08-19T12:18:13;28.45;;;20.15;;
23185;SDS011;11761;51.324;4.590;2022-08-19T12:20:40;25.65;;;18.85;;
23185;SDS011;11761;51.324;4.590;2022-08-19T12:23:08;25.58;;;17.15;;
23185;SDS011;11761;51.324;4.590;2022-08-19T12:25:35;21.63;;;15.52;;
23185;SDS011;11761;51.324;4.590;2022-08-19T12:28:03;20.13;;;13.68;;
23185;SDS011;11761;51.324;4.590;2022-08-19T12:30:29;18.80;;;13.23;;
23185;SDS011;11761;51.324;4.590;2022-08-19T12:32:55;19.45;;;12.85;;
23185;SDS011;11761;51.324;4.590;2022-08-19T12:35:22;19.67;;;11.68;;
23185;SDS011;11761;51.324;4.590;2022-08-19T12:37:48;16.38;;;11.80;;
23185;SDS011;11761;51.324;4.590;2022-08-19T12:40:15;17.40;;;9.43;;
23185;SDS011;11761;51.324;4.590;2022-08-19T12:42:43;14.10;;;9.25;;
23185;SDS011;11761;51.324;4.590;2022-08-19T12:45:13;12.90;;;8.68;;
23185;SDS011;11761;51.324;4.590;2022-08-19T12:47:40;13.50;;;7.65;;
23185;SDS011;11761;51.324;4.590;2022-08-19T12:50:06;12.18;;;7.43;;
23185;SDS011;11761;51.324;4.590;2022-08-19T12:52:34;13.30;;;7.05;;
23185;SDS011;11761;51.324;4.590;2022-08-19T12:55:06;11.43;;;7.83;;
23185;SDS011;11761;51.324;4.590;2022-08-19T12:57:34;13.75;;;6.85;;
23185;SDS011;11761;51.324;4.590;2022-08-19T13:02:37;12.15;;;7.57;;
23185;SDS011;11761;51.324;4.590;2022-08-19T13:05:11;14.25;;;6.40;;
23185;SDS011;11761;51.324;4.590;2022-08-19T13:07:41;9.43;;;5.78;;
23185;SDS011;11761;51.324;4.590;2022-08-19T13:10:10;6.82;;;4.93;;
23185;SDS011;11761;51.324;4.590;2022-08-19T13:12:39;7.75;;;4.80;;
23185;SDS011;11761;51.324;4.590;2022-08-19T13:15:07;6.38;;;4.47;;
23185;SDS011;11761;51.324;4.590;2022-08-19T13:17:34;9.15;;;4.35;;
23185;SDS011;11761;51.324;4.590;2022-08-19T13:20:02;7.07;;;4.03;;
23185;SDS011;11761;51.324;4.590;2022-08-19T13:22:29;5.93;;;4.13;;
23185;SDS011;11761;51.324;4.590;2022-08-19T13:24:55;7.10;;;5.00;;
23185;SDS011;11761;51.324;4.590;2022-08-19T13:27:21;6.05;;;4.70;;
23185;SDS011;11761;51.324;4.590;2022-08-19T13:29:47;6.75;;;4.95;;
23185;SDS011;11761;51.324;4.590;2022-08-19T13:32:32;5.95;;;4.72;;
23185;SDS011;11761;51.324;4.590;2022-08-19T13:35:17;6.60;;;4.72;;
23185;SDS011;11761;51.324;4.590;2022-08-19T13:37:43;6.93;;;4.43;;
23185;SDS011;11761;51.324;4.590;2022-08-19T13:40:12;8.95;;;4.47;;
23185;SDS011;11761;51.324;4.590;2022-08-19T13:42:43;7.40;;;4.70;;
23185;SDS011;11761;51.324;4.590;2022-08-19T13:45:13;7.68;;;4.63;;
23185;SDS011;11761;51.324;4.590;2022-08-19T13:47:54;8.10;;;4.53;;
23185;SDS011;11761;51.324;4.590;2022-08-19T13:50:23;6.85;;;3.53;;
23185;SDS011;11761;51.324;4.590;2022-08-19T13:52:52;5.88;;;3.10;;
23185;SDS011;11761;51.324;4.590;2022-08-19T13:55:19;7.30;;;3.80;;
23185;SDS011;11761;51.324;4.590;2022-08-19T13:57:49;5.03;;;3.20;;
23185;SDS011;11761;51.324;4.590;2022-08-19T14:00:21;4.07;;;2.90;;
23185;SDS011;11761;51.324;4.590;2022-08-19T14:02:52;5.30;;;3.40;;
23185;SDS011;11761;51.324;4.590;2022-08-19T14:05:21;7.45;;;3.83;;
23185;SDS011;11761;51.324;4.590;2022-08-19T14:07:47;8.23;;;3.47;;
23185;SDS011;11761;51.324;4.590;2022-08-19T14:10:14;3.85;;;2.95;;
23185;SDS011;11761;51.324;4.590;2022-08-19T14:12:42;5.78;;;3.28;;
23185;SDS011;11761;51.324;4.590;2022-08-19T14:15:08;4.75;;;3.72;;
23185;SDS011;11761;51.324;4.590;2022-08-19T14:17:39;5.43;;;2.63;;
23185;SDS011;11761;51.324;4.590;2022-08-19T14:20:06;5.20;;;2.85;;
23185;SDS011;11761;51.324;4.590;2022-08-19T14:22:35;5.32;;;2.30;;
23185;SDS011;11761;51.324;4.590;2022-08-19T14:25:07;5.88;;;3.10;;
23185;SDS011;11761;51.324;4.590;2022-08-19T14:27:38;4.60;;;2.65;;
23185;SDS011;11761;51.324;4.590;2022-08-19T14:30:10;4.65;;;2.72;;
23185;SDS011;11761;51.324;4.590;2022-08-19T14:32:38;5.40;;;2.60;;
23185;SDS011;11761;51.324;4.590;2022-08-19T14:35:05;4.72;;;3.25;;
23185;SDS011;11761;51.324;4.590;2022-08-19T14:37:33;4.15;;;3.38;;
23185;SDS011;11761;51.324;4.590;2022-08-19T14:40:00;4.45;;;3.20;;
23185;SDS011;11761;51.324;4.590;2022-08-19T14:42:28;4.47;;;3.30;;
23185;SDS011;11761;51.324;4.590;2022-08-19T14:44:57;4.85;;;3.40;;
23185;SDS011;11761;51.324;4.590;2022-08-19T14:47:24;4.18;;;3.40;;
23185;SDS011;11761;51.324;4.590;2022-08-19T14:49:50;3.83;;;2.97;;
23185;SDS011;11761;51.324;4.590;2022-08-19T14:52:16;5.47;;;3.17;;
23185;SDS011;11761;51.324;4.590;2022-08-19T14:54:42;5.35;;;2.70;;